createdAt,value
2018-09-12T00:01:41.434Z,17.99
2018-09-12T00:04:10.506Z,18.22
2018-09-12T00:06:39.566Z,18.26
2018-09-12T00:09:10.739Z,18.26
2018-09-12T00:11:39.945Z,18.09
2018-09-12T00:14:10.122Z,17.92
2018-09-12T00:16:39.460Z,17.71
2018-09-12T00:19:08.842Z,17.51
2018-09-12T00:21:38.399Z,17.49
2018-09-12T00:24:07.542Z,17.59
2018-09-12T00:26:36.766Z,17.57
2018-09-12T00:29:05.785Z,17.58
2018-09-12T00:31:34.958Z,17.60
2018-09-12T00:34:04.121Z,17.58
2018-09-12T00:36:33.239Z,17.68
2018-09-12T00:39:02.459Z,17.74
2018-09-12T00:41:31.545Z,17.84
2018-09-12T00:44:01.477Z,17.91
2018-09-12T00:46:30.690Z,17.97
2018-09-12T00:48:59.975Z,18.02
2018-09-12T00:51:29.147Z,18.03
2018-09-12T00:53:58.232Z,18.25
2018-09-12T00:56:27.379Z,18.35
2018-09-12T00:58:56.503Z,18.27
2018-09-12T01:01:25.613Z,18.12
2018-09-12T01:03:54.665Z,17.95
2018-09-12T01:06:23.686Z,17.76
2018-09-12T01:08:52.848Z,17.57
2018-09-12T01:11:23.713Z,17.37
2018-09-12T01:13:54.146Z,17.22
2018-09-12T01:16:23.238Z,17.16
2018-09-12T01:18:52.511Z,17.07
2018-09-12T01:21:21.538Z,17.04
2018-09-12T01:23:51.492Z,17.06
2018-09-12T01:26:57.311Z,17.55
2018-09-12T01:35:50.930Z,17.62
2018-09-12T01:38:20.929Z,17.58
2018-09-12T01:40:50.211Z,17.50
2018-09-12T01:43:19.275Z,17.46
2018-09-12T01:45:48.506Z,17.45
2018-09-12T01:48:17.612Z,17.37
2018-09-12T01:50:53.165Z,17.34
2018-09-12T01:53:22.257Z,17.36
2018-09-12T01:55:51.446Z,17.34
2018-09-12T01:58:20.618Z,17.30
2018-09-12T02:00:49.792Z,17.18
2018-09-12T02:03:18.805Z,17.31
2018-09-12T02:05:47.931Z,17.46
2018-09-12T02:08:17.273Z,17.47
2018-09-12T02:10:46.323Z,17.47
2018-09-12T02:13:15.959Z,17.45
2018-09-12T02:15:45.114Z,17.60
2018-09-12T02:18:14.958Z,17.67
2018-09-12T02:20:44.179Z,17.78
2018-09-12T02:23:13.487Z,17.86
2018-09-12T02:25:42.502Z,17.80
2018-09-12T02:28:31.103Z,17.52
2018-09-12T02:31:00.814Z,17.52
2018-09-12T02:33:30.086Z,17.38
2018-09-12T02:36:04.284Z,17.26
2018-09-12T02:38:33.434Z,17.18
2018-09-12T02:41:02.621Z,17.29
2018-09-12T02:43:32.059Z,17.56
2018-09-12T02:46:01.497Z,17.68
2018-09-12T02:48:30.978Z,17.62
2018-09-12T02:57:52.569Z,17.29
2018-09-12T03:00:21.655Z,17.22
2018-09-12T03:02:50.686Z,17.09
2018-09-12T03:05:19.801Z,16.97
2018-09-12T03:07:48.914Z,16.91
2018-09-12T03:10:18.001Z,16.90
2018-09-12T03:12:47.089Z,17.15
2018-09-12T03:15:16.843Z,17.25
2018-09-12T03:17:45.922Z,17.29
2018-09-12T03:20:15.359Z,17.21
2018-09-12T03:22:44.365Z,17.19
2018-09-12T03:25:13.693Z,17.39
2018-09-12T03:27:42.899Z,17.41
2018-09-12T03:30:11.975Z,17.41
2018-09-12T03:32:41.109Z,17.34
2018-09-12T03:35:10.287Z,17.27
2018-09-12T03:37:39.424Z,17.22
2018-09-12T03:40:08.833Z,17.22
2018-09-12T03:42:37.967Z,17.23
2018-09-12T03:45:07.535Z,17.20
2018-09-12T03:47:36.658Z,17.09
2018-09-12T03:50:05.911Z,16.99
2018-09-12T03:52:35.005Z,16.91
2018-09-12T03:55:08.450Z,16.88
2018-09-12T03:57:37.454Z,16.89
2018-09-12T04:00:07.409Z,16.90
2018-09-12T04:02:36.623Z,16.98
2018-09-12T04:05:06.189Z,16.95
2018-09-12T04:07:35.312Z,16.90
2018-09-12T04:10:04.484Z,16.86
2018-09-12T04:12:33.623Z,16.89
2018-09-12T04:15:02.787Z,16.88
2018-09-12T04:17:34.857Z,16.87
2018-09-12T04:20:03.940Z,16.79
2018-09-12T04:22:33.561Z,16.65
2018-09-12T04:25:02.637Z,16.46
2018-09-12T04:27:31.634Z,16.24
2018-09-12T04:30:00.639Z,16.05
2018-09-12T04:32:29.733Z,15.94
2018-09-12T04:34:58.704Z,15.92
2018-09-12T04:37:27.679Z,15.89
2018-09-12T04:39:56.745Z,15.88
2018-09-12T04:42:25.708Z,15.85
2018-09-12T04:44:54.717Z,15.76
2018-09-12T04:47:23.758Z,15.74
2018-09-12T04:49:52.854Z,15.82
2018-09-12T04:52:21.832Z,15.94
2018-09-12T04:54:50.983Z,15.99
2018-09-12T04:57:20.050Z,15.99
2018-09-12T04:59:49.186Z,16.11
2018-09-12T05:02:18.149Z,16.29
2018-09-12T05:04:47.112Z,16.56
2018-09-12T05:07:16.684Z,16.90
2018-09-12T05:09:45.829Z,17.36
2018-09-12T05:12:15.349Z,17.91
2018-09-12T05:14:44.284Z,18.46
2018-09-12T05:17:13.661Z,18.94
2018-09-12T05:19:42.677Z,19.43
2018-09-12T05:22:11.742Z,19.91
2018-09-12T05:24:40.902Z,20.39
2018-09-12T05:27:09.853Z,20.80
2018-09-12T05:29:38.991Z,20.87
2018-09-12T05:43:03.697Z,22.45
2018-09-12T05:45:32.864Z,22.78
2018-09-12T05:48:01.855Z,22.76
2018-09-12T05:50:30.781Z,22.57
2018-09-12T05:52:59.842Z,22.37
2018-09-12T05:55:28.845Z,22.35
2018-09-12T05:57:57.887Z,22.51
2018-09-12T06:00:27.113Z,22.68
2018-09-12T06:02:56.222Z,22.87
2018-09-12T06:05:25.244Z,23.24
2018-09-12T06:07:54.359Z,23.46
2018-09-12T06:10:23.393Z,23.75
2018-09-12T06:12:52.426Z,23.75
2018-09-12T06:15:21.625Z,23.88
2018-09-12T06:17:50.708Z,24.26
2018-09-12T06:20:20.209Z,24.46
2018-09-12T06:22:49.296Z,24.53
2018-09-12T06:25:18.266Z,24.67
2018-09-12T06:27:47.260Z,24.75
2018-09-12T06:30:17.012Z,24.72
2018-09-12T06:32:46.042Z,24.69
2018-09-12T06:35:18.890Z,24.67
2018-09-12T06:37:47.997Z,24.67
2018-09-12T06:40:17.473Z,24.71
2018-09-12T06:42:46.590Z,25.05
2018-09-12T06:45:16.303Z,25.40
2018-09-12T06:47:45.402Z,25.67
2018-09-12T06:50:14.949Z,25.86
2018-09-12T06:52:43.902Z,26.25
2018-09-12T06:55:12.942Z,26.60
2018-09-12T06:57:42.053Z,26.67
2018-09-12T07:00:11.313Z,26.80
2018-09-12T07:02:40.295Z,27.06
2018-09-12T07:05:09.701Z,27.30
2018-09-12T07:07:38.853Z,27.56
2018-09-12T07:10:08.454Z,27.57
2018-09-12T07:12:37.541Z,27.82
2018-09-12T07:15:06.982Z,27.91
2018-09-12T07:17:36.035Z,28.14
2018-09-12T07:20:05.348Z,27.84
2018-09-12T07:22:34.513Z,28.07
2018-09-12T07:25:03.922Z,28.17
2018-09-12T07:27:33.173Z,28.39
2018-09-12T07:30:02.215Z,28.54
2018-09-12T07:32:31.594Z,28.70
2018-09-12T07:35:01.084Z,28.82
2018-09-12T07:37:30.177Z,28.60
2018-09-12T07:39:59.155Z,28.58
2018-09-12T07:42:28.352Z,28.46
2018-09-12T07:44:57.344Z,29.13
2018-09-12T07:47:26.346Z,28.87
2018-09-12T07:49:55.948Z,29.50
2018-09-12T07:52:25.400Z,29.64
2018-09-12T07:54:54.371Z,29.18
2018-09-12T07:57:23.607Z,29.00
2018-09-12T07:59:52.710Z,28.76
2018-09-12T08:02:21.857Z,28.59
2018-09-12T08:04:50.845Z,28.66
2018-09-12T08:07:19.939Z,28.41
2018-09-12T08:09:49.020Z,29.02
2018-09-12T08:12:18.165Z,29.29
2018-09-12T08:14:47.286Z,29.16
2018-09-12T08:17:16.956Z,29.33
2018-09-12T08:19:46.126Z,29.60
2018-09-12T08:22:15.496Z,29.17
2018-09-12T08:24:44.450Z,29.84
2018-09-12T08:27:13.852Z,30.15
2018-09-12T08:29:42.864Z,30.79
2018-09-12T08:32:11.953Z,31.12
2018-09-12T08:34:41.103Z,30.97
2018-09-12T08:37:10.150Z,31.53
2018-09-12T08:39:39.211Z,31.85
2018-09-12T08:42:08.401Z,32.34
2018-09-12T08:44:37.435Z,31.90
2018-09-12T08:47:06.640Z,32.32
2018-09-12T08:49:35.785Z,31.93
2018-09-12T08:52:04.757Z,32.68
2018-09-12T08:54:33.825Z,32.81
2018-09-12T08:57:05.714Z,33.38
2018-09-12T08:59:34.736Z,33.35
2018-09-12T09:02:03.732Z,33.26
2018-09-12T09:04:35.466Z,33.65
2018-09-12T09:07:04.615Z,33.78
2018-09-12T09:09:33.617Z,34.39
2018-09-12T09:12:02.617Z,34.87
2018-09-12T09:14:31.581Z,35.23
2018-09-12T09:17:00.575Z,34.91
2018-09-12T09:19:29.681Z,35.07
2018-09-12T09:24:10.441Z,35.12
2018-09-12T09:26:39.448Z,34.20
2018-09-12T09:29:08.419Z,34.30
2018-09-12T09:31:37.434Z,34.66
2018-09-12T09:34:06.561Z,33.48
2018-09-12T09:36:35.536Z,32.84
2018-09-12T09:39:06.365Z,33.26
2018-09-12T09:41:35.380Z,33.25
2018-09-12T09:44:04.418Z,33.19
2018-09-12T09:46:33.613Z,34.30
2018-09-12T09:49:03.369Z,34.62
2018-09-12T09:51:32.431Z,34.78
2018-09-12T09:54:01.499Z,34.22
2018-09-12T09:56:34.332Z,34.30
2018-09-12T09:59:03.407Z,34.69
2018-09-12T10:01:37.431Z,35.15
2018-09-12T10:04:11.512Z,35.51
2018-09-12T10:06:45.805Z,35.75
2018-09-12T10:09:19.800Z,35.49
2018-09-12T10:11:49.008Z,35.39
2018-09-12T10:18:00.730Z,35.55
2018-09-12T10:23:51.293Z,35.14
2018-09-12T10:26:20.261Z,35.15
2018-09-12T10:28:49.318Z,34.71
2018-09-12T10:31:18.362Z,36.22
2018-09-12T10:33:47.379Z,36.27
2018-09-12T10:36:16.649Z,36.99
2018-09-12T10:38:45.677Z,35.13
2018-09-12T10:41:14.866Z,33.64
2018-09-12T10:43:43.857Z,33.36
2018-09-12T10:46:12.924Z,33.11
2018-09-12T10:48:41.951Z,33.23
2018-09-12T10:51:10.958Z,34.65
2018-09-12T10:53:40.311Z,34.95
2018-09-12T10:56:09.416Z,35.29
2018-09-12T10:58:38.328Z,33.76
2018-09-12T11:01:07.569Z,33.33
2018-09-12T11:03:36.540Z,33.60
2018-09-12T11:06:05.583Z,33.80
2018-09-12T11:08:34.609Z,34.18
2018-09-12T11:11:03.597Z,33.89
2018-09-12T11:13:32.800Z,34.49
2018-09-12T11:16:01.862Z,33.96
2018-09-12T11:18:30.891Z,33.38
2018-09-12T11:20:59.912Z,34.61
2018-09-12T11:23:32.897Z,34.82
2018-09-12T11:26:01.957Z,33.83
2018-09-12T11:28:30.918Z,34.69
2018-09-12T11:30:59.993Z,34.56
2018-09-12T11:33:28.998Z,34.43
2018-09-12T11:35:58.009Z,34.19
2018-09-12T11:38:27.076Z,33.68
2018-09-12T11:40:56.141Z,34.14
2018-09-12T11:43:25.085Z,34.33
2018-09-12T11:45:54.081Z,33.93
2018-09-12T11:48:23.207Z,34.09
2018-09-12T11:50:52.225Z,34.86
2018-09-12T11:53:21.363Z,34.57
2018-09-12T11:55:50.364Z,34.19
2018-09-12T11:58:19.330Z,34.17
2018-09-12T12:00:48.368Z,34.99
2018-09-12T12:03:17.826Z,35.51
2018-09-12T12:05:46.786Z,35.93
2018-09-12T12:08:16.209Z,36.03
2018-09-12T12:10:45.170Z,34.93
2018-09-12T12:13:14.568Z,34.98
2018-09-12T12:15:43.629Z,34.22
2018-09-12T12:18:12.652Z,34.27
2018-09-12T12:20:41.606Z,33.91
2018-09-12T12:23:10.690Z,35.19
2018-09-12T12:25:39.681Z,35.94
2018-09-12T12:28:08.698Z,35.71
2018-09-12T12:30:37.696Z,35.64
2018-09-12T12:33:07.077Z,35.16
2018-09-12T12:35:36.092Z,34.54
2018-09-12T12:38:05.209Z,34.43
2018-09-12T12:40:34.233Z,34.37
2018-09-12T12:43:06.218Z,33.65
2018-09-12T12:45:35.276Z,33.54
2018-09-12T12:48:04.289Z,33.51
2018-09-12T12:50:33.311Z,33.50
2018-09-12T12:53:02.395Z,33.77
2018-09-12T12:55:31.449Z,33.88
2018-09-12T12:58:00.461Z,34.20
2018-09-12T13:00:29.494Z,34.72
2018-09-12T13:02:58.423Z,34.82
2018-09-12T13:05:27.426Z,35.25
2018-09-12T13:07:56.380Z,35.22
2018-09-12T13:10:25.355Z,34.76
2018-09-12T13:12:54.381Z,35.03
2018-09-12T13:15:23.359Z,35.50
2018-09-12T13:17:52.332Z,34.77
2018-09-12T13:20:21.400Z,34.36
2018-09-12T13:22:50.344Z,34.34
2018-09-12T13:25:19.406Z,33.25
2018-09-12T13:27:48.493Z,34.11
2018-09-12T13:30:17.734Z,35.24
2018-09-12T13:32:46.689Z,36.12
2018-09-12T13:35:16.361Z,36.31
2018-09-12T13:37:45.296Z,34.71
2018-09-12T13:40:14.688Z,33.77
2018-09-12T13:42:43.664Z,33.78
2018-09-12T13:45:12.885Z,34.07
2018-09-12T13:47:42.358Z,33.90
2018-09-12T13:50:11.595Z,34.17
2018-09-12T13:52:40.601Z,33.40
2018-09-12T13:55:09.701Z,33.19
2018-09-12T13:57:38.701Z,33.03
2018-09-12T14:00:08.116Z,33.29
2018-09-12T14:02:37.192Z,33.18
2018-09-12T14:05:06.411Z,32.81
2018-09-12T14:07:35.746Z,32.79
2018-09-12T14:10:05.428Z,32.87
2018-09-12T14:12:34.522Z,33.08
2018-09-12T14:15:03.674Z,33.22
2018-09-12T14:17:32.732Z,33.70
2018-09-12T14:20:01.847Z,34.14
2018-09-12T14:22:30.849Z,34.33
2018-09-12T14:24:59.879Z,34.20
2018-09-12T14:27:28.842Z,33.18
2018-09-12T14:29:58.081Z,32.20
2018-09-12T14:32:27.115Z,31.61
2018-09-12T14:34:56.119Z,31.25
2018-09-12T14:37:25.221Z,31.05
2018-09-12T14:39:54.243Z,31.07
2018-09-12T14:42:23.356Z,31.20
2018-09-12T14:44:52.379Z,31.29
2018-09-12T14:47:21.561Z,31.38
2018-09-12T14:49:50.617Z,31.30
2018-09-12T14:52:19.579Z,31.13
2018-09-12T14:54:48.616Z,31.00
2018-09-12T14:57:17.917Z,30.88
2018-09-12T14:59:46.932Z,30.78
2018-09-12T15:02:16.351Z,30.75
2018-09-12T15:04:45.452Z,30.74
2018-09-12T15:07:15.004Z,30.79
2018-09-12T15:09:44.137Z,30.75
2018-09-12T15:12:15.872Z,30.74
2018-09-12T15:14:44.841Z,30.91
2018-09-12T15:17:14.220Z,30.84
2018-09-12T15:19:43.277Z,30.92
2018-09-12T15:22:13.133Z,30.80
2018-09-12T15:24:42.182Z,30.79
2018-09-12T15:27:11.273Z,30.73
2018-09-12T15:29:40.241Z,30.68
2018-09-12T15:32:09.283Z,30.59
2018-09-12T15:34:38.337Z,30.54
2018-09-12T15:37:07.415Z,30.54
2018-09-12T15:39:36.398Z,30.67
2018-09-12T15:42:05.516Z,30.66
2018-09-12T15:44:34.513Z,30.52
2018-09-12T15:47:03.600Z,30.39
2018-09-12T15:49:32.620Z,30.69
2018-09-12T15:52:01.627Z,30.80
2018-09-12T15:54:30.679Z,30.60
2018-09-12T15:56:59.773Z,30.46
2018-09-12T15:59:28.841Z,30.43
2018-09-12T16:01:57.816Z,30.27
2018-09-12T16:04:34.644Z,30.28
2018-09-12T16:07:03.863Z,30.28
2018-09-12T16:09:32.961Z,30.26
2018-09-12T16:12:02.003Z,30.15
2018-09-12T16:14:31.085Z,30.04
2018-09-12T16:17:00.284Z,29.86
2018-09-12T16:19:29.326Z,30.01
2018-09-12T16:21:58.315Z,29.99
2018-09-12T16:24:27.357Z,29.80
2018-09-12T16:38:26.899Z,29.54
2018-09-12T16:40:55.986Z,29.71
2018-09-12T16:43:24.981Z,29.81
2018-09-12T16:45:54.077Z,29.79
2018-09-12T16:48:23.056Z,29.65
2018-09-12T16:50:52.066Z,29.36
2018-09-12T16:53:22.837Z,29.03
2018-09-12T16:55:51.847Z,28.80
2018-09-12T16:58:20.804Z,28.57
2018-09-12T17:00:52.021Z,28.39
2018-09-12T17:03:22.106Z,28.24
2018-09-12T17:05:51.728Z,28.01
2018-09-12T17:08:21.727Z,27.96
2018-09-12T17:10:50.791Z,27.83
2018-09-12T17:13:41.574Z,27.72
2018-09-12T17:16:10.577Z,27.54
2018-09-12T17:18:40.329Z,27.29
2018-09-12T17:21:09.440Z,27.03
2018-09-12T17:23:38.589Z,26.74
2018-09-12T17:26:08.753Z,26.56
2018-09-12T17:28:37.846Z,26.52
2018-09-12T17:31:06.878Z,26.50
2018-09-12T17:33:36.008Z,26.49
2018-09-12T17:36:05.108Z,26.72
2018-09-12T17:38:34.088Z,26.53
2018-09-12T17:41:03.229Z,26.38
2018-09-12T17:43:32.330Z,26.21
2018-09-12T17:46:01.448Z,26.06
2018-09-12T17:48:30.656Z,26.12
2018-09-12T17:50:59.968Z,26.19
2018-09-12T17:53:29.736Z,26.06
2018-09-12T17:56:14.511Z,25.96
2018-09-12T18:05:22.775Z,26.12
2018-09-12T18:07:51.963Z,26.35
2018-09-12T18:10:20.958Z,26.65
2018-09-12T18:12:49.973Z,26.75
2018-09-12T18:15:19.032Z,26.74
2018-09-12T18:17:48.137Z,26.74
2018-09-12T18:20:17.540Z,26.60
2018-09-12T18:22:46.644Z,26.39
2018-09-12T18:25:16.009Z,26.44
2018-09-12T18:27:45.073Z,26.20
2018-09-12T18:30:15.417Z,25.54
2018-09-12T18:32:44.469Z,25.00
2018-09-12T18:35:18.379Z,24.66
2018-09-12T18:37:47.605Z,24.55
2018-09-12T18:40:17.255Z,24.50
2018-09-12T18:42:46.462Z,24.52
2018-09-12T18:45:16.134Z,24.84
2018-09-12T18:47:45.286Z,24.78
2018-09-12T18:50:14.842Z,24.74
2018-09-12T18:52:43.887Z,24.91
2018-09-12T18:55:12.931Z,25.00
2018-09-12T18:57:42.114Z,24.90
2018-09-12T19:00:11.261Z,24.82
2018-09-12T19:02:40.424Z,24.77
2018-09-12T19:05:10.766Z,24.68
2018-09-12T19:07:39.843Z,24.58
2018-09-12T19:10:09.710Z,24.43
2018-09-12T19:12:41.480Z,24.42
2018-09-12T19:15:10.611Z,24.50
2018-09-12T19:17:39.833Z,24.48
2018-09-12T19:20:09.016Z,24.54
2018-09-12T19:22:38.153Z,24.57
2018-09-12T19:25:07.343Z,24.54
2018-09-12T19:27:36.528Z,24.56
2018-09-12T19:30:05.757Z,24.48
2018-09-12T19:32:35.306Z,24.47
2018-09-12T19:35:04.578Z,24.38
2018-09-12T19:37:34.084Z,24.30
2018-09-12T19:40:03.151Z,24.21
2018-09-12T19:42:32.510Z,24.07
2018-09-12T19:45:01.558Z,24.02
2018-09-12T19:47:30.577Z,23.97
2018-09-12T19:49:59.686Z,23.97
2018-09-12T19:52:28.758Z,24.08
2018-09-12T19:54:57.807Z,24.20
2018-09-12T19:57:26.871Z,24.29
2018-09-12T19:59:55.906Z,24.33
2018-09-12T20:02:33.840Z,24.41
2018-09-12T20:05:03.014Z,24.53
2018-09-12T20:07:32.831Z,24.66
2018-09-12T20:10:01.929Z,24.63
2018-09-12T20:12:30.933Z,24.62
2018-09-12T20:14:59.992Z,24.50
2018-09-12T20:17:30.258Z,24.60
2018-09-12T20:19:59.545Z,24.53
2018-09-12T20:22:28.708Z,24.60
2018-09-12T20:24:57.879Z,24.57
2018-09-12T20:27:26.932Z,24.57
2018-09-12T20:29:55.986Z,24.52
2018-09-12T20:32:25.009Z,24.37
2018-09-12T20:34:54.095Z,24.37
2018-09-12T20:37:23.216Z,24.28
2018-09-12T20:39:52.252Z,24.20
2018-09-12T20:42:34.798Z,24.37
2018-09-12T20:55:05.134Z,23.98
2018-09-12T20:57:34.187Z,23.84
2018-09-12T21:00:03.186Z,23.89
2018-09-12T21:02:32.303Z,23.85
2018-09-12T21:05:01.348Z,23.75
2018-09-12T21:07:30.428Z,23.78
2018-09-12T21:09:59.450Z,23.76
2018-09-12T21:12:28.520Z,23.70
2018-09-12T21:14:57.589Z,23.68
2018-09-12T21:17:26.630Z,23.65
2018-09-12T21:19:55.730Z,23.70
2018-09-12T21:22:24.826Z,23.76
2018-09-12T21:24:53.828Z,23.87
2018-09-12T21:27:22.856Z,23.68
2018-09-12T21:29:51.940Z,23.62
2018-09-12T21:32:20.953Z,23.59
2018-09-12T21:34:50.011Z,23.42
2018-09-12T21:37:19.001Z,23.27
2018-09-12T21:39:48.104Z,23.17
2018-09-12T21:42:17.756Z,23.07
2018-09-12T21:44:46.779Z,22.92
2018-09-12T21:47:16.613Z,22.71
2018-09-12T21:49:45.745Z,22.49
2018-09-12T21:52:15.561Z,22.37
2018-09-12T21:54:44.592Z,22.27
2018-09-12T21:57:13.625Z,22.28
2018-09-12T21:59:42.817Z,22.26
2018-09-12T22:02:12.017Z,22.18
2018-09-12T22:04:41.163Z,22.12
2018-09-12T22:07:10.212Z,22.20
2018-09-12T22:09:39.386Z,22.22
2018-09-12T22:12:08.569Z,22.16
2018-09-12T22:14:37.713Z,22.08
2018-09-12T22:17:06.872Z,22.06
2018-09-12T22:19:36.124Z,22.01
2018-09-12T22:22:05.173Z,21.98
2018-09-12T22:24:34.268Z,21.94
2018-09-12T22:27:03.472Z,21.87
2018-09-12T22:29:32.670Z,21.84
2018-09-12T22:32:02.060Z,21.85
2018-09-12T22:34:31.263Z,21.84
2018-09-12T22:37:00.402Z,21.89
2018-09-12T22:39:29.609Z,22.13
2018-09-12T22:41:59.288Z,22.32
2018-09-12T22:44:45.076Z,22.67
2018-09-12T22:47:14.946Z,22.65
2018-09-12T22:49:44.071Z,22.59
2018-09-12T22:52:13.104Z,22.48
2018-09-12T22:54:42.333Z,22.34
2018-09-12T22:57:11.323Z,22.11
2018-09-12T22:59:40.464Z,22.05
2018-09-12T23:02:09.616Z,22.06
2018-09-12T23:04:38.601Z,21.94
2018-09-12T23:07:07.869Z,21.76
2018-09-12T23:09:36.977Z,21.69
2018-09-12T23:12:06.120Z,21.59
2018-09-12T23:14:35.189Z,21.42
2018-09-12T23:17:07.418Z,21.29
2018-09-12T23:19:36.607Z,21.22
2018-09-12T23:22:05.782Z,21.20
2018-09-12T23:24:34.819Z,21.18
2018-09-12T23:27:03.854Z,21.23
2018-09-12T23:29:33.201Z,21.20
2018-09-12T23:32:02.281Z,21.13
2018-09-12T23:34:33.695Z,21.16
2018-09-12T23:37:02.788Z,21.14
2018-09-12T23:39:31.910Z,21.08
2018-09-12T23:42:01.137Z,21.04
2018-09-12T23:44:33.405Z,21.39
2018-09-12T23:47:02.522Z,21.69
2018-09-12T23:49:31.629Z,21.67
2018-09-12T23:52:00.803Z,21.42
2018-09-12T23:54:29.976Z,21.02
2018-09-12T23:56:59.077Z,20.69
2018-09-12T23:59:28.181Z,20.65
